Time;durP1;ratioP1;P1;durP2;ratioP2;P2;SDS_P1;SDS_P2;PMS_P1;PMS_P2;Temp;Humidity;BMP_temperature;BMP_pressure;BME280_temperature;BME280_humidity;BME280_pressure;Samples;Min_cycle;Max_cycle;Signal;HPM_P1;HPM_P2
2022/04/27 00:00:21;;;;;;;6.75;6.03;;;4.90;99.90;;;;;;5031059;28;20020;-54
2022/04/27 00:02:47;;;;;;;6.18;5.60;;;4.90;99.90;;;;;;5030257;28;20579;-56
2022/04/27 00:05:14;;;;;;;6.20;5.60;;;5.00;99.90;;;;;;5031431;28;20033;-56
2022/04/27 00:07:39;;;;;;;7.25;6.55;;;5.00;99.90;;;;;;5031469;28;20025;-57
2022/04/27 00:10:05;;;;;;;7.63;6.93;;;5.00;99.90;;;;;;5031422;28;20477;-55
2022/04/27 00:12:33;;;;;;;8.93;8.02;;;5.10;99.90;;;;;;5031424;28;20037;-57
2022/04/27 00:14:59;;;;;;;6.93;6.22;;;5.10;99.90;;;;;;5031129;28;20139;-55
2022/04/27 00:17:25;;;;;;;6.65;6.05;;;5.20;99.90;;;;;;5031396;28;20616;-56
2022/04/27 00:19:51;;;;;;;7.13;5.80;;;5.20;99.90;;;;;;5034876;28;20017;-52
2022/04/27 00:22:16;;;;;;;8.20;6.18;;;5.30;99.90;;;;;;5034147;28;20034;-53
2022/04/27 00:24:42;;;;;;;6.65;5.95;;;5.40;99.90;;;;;;5035671;28;20040;-55
2022/04/27 00:27:09;;;;;;;7.30;6.05;;;5.40;99.90;;;;;;5035566;28;20021;-56
2022/04/27 00:29:34;;;;;;;6.95;5.38;;;5.50;99.90;;;;;;5035129;28;20028;-57
2022/04/27 00:32:00;;;;;;;5.85;4.90;;;5.60;99.90;;;;;;5035451;28;20457;-57
2022/04/27 00:34:26;;;;;;;6.07;5.55;;;5.60;99.90;;;;;;5034859;28;20022;-57
2022/04/27 00:36:51;;;;;;;7.25;6.10;;;5.60;99.90;;;;;;5035344;28;20030;-54
2022/04/27 00:39:17;;;;;;;6.28;5.72;;;5.70;99.90;;;;;;5034984;28;20131;-56
2022/04/27 00:41:59;;;;;;;6.65;5.63;;;5.70;99.90;;;;;;5035239;28;20519;-55
2022/04/27 00:44:32;;;;;;;6.20;5.60;;;5.70;99.90;;;;;;5035047;28;20022;-53
2022/04/27 00:46:59;;;;;;;6.25;5.65;;;5.70;99.90;;;;;;5035039;28;20017;-55
2022/04/27 00:49:26;;;;;;;6.75;6.05;;;5.70;99.90;;;;;;5034879;28;20096;-53
2022/04/27 00:51:53;;;;;;;6.68;6.07;;;5.60;99.90;;;;;;5035091;28;20388;-54
2022/04/27 00:54:22;;;;;;;7.18;6.47;;;5.50;99.90;;;;;;5034645;28;20018;-49
2022/04/27 00:56:49;;;;;;;12.10;6.75;;;5.40;99.90;;;;;;5034724;28;20040;-52
2022/04/27 00:59:15;;;;;;;7.07;6.38;;;5.40;99.90;;;;;;5034664;28;20030;-54
2022/04/27 01:01:41;;;;;;;6.90;6.03;;;5.20;99.90;;;;;;5034378;28;20022;-55
2022/04/27 01:04:07;;;;;;;6.75;6.10;;;5.20;99.90;;;;;;5034610;28;20476;-51
2022/04/27 01:06:36;;;;;;;6.75;6.15;;;5.10;99.90;;;;;;5034170;28;20459;-56
2022/04/27 01:09:03;;;;;;;7.63;6.93;;;5.10;99.90;;;;;;5034568;28;20036;-55
2022/04/27 01:11:30;;;;;;;7.25;6.55;;;5.00;99.90;;;;;;5034439;28;20029;-54
2022/04/27 01:13:56;;;;;;;8.93;8.02;;;5.00;99.90;;;;;;5034635;28;20053;-55
2022/04/27 01:16:21;;;;;;;8.10;7.30;;;5.00;99.90;;;;;;5034381;28;20018;-56
2022/04/27 01:18:48;;;;;;;7.45;6.75;;;4.90;99.90;;;;;;5034439;28;20021;-51
2022/04/27 01:21:14;;;;;;;7.70;6.97;;;5.00;99.90;;;;;;5034434;28;20030;-58
2022/04/27 01:23:40;;;;;;;8.80;7.30;;;4.90;99.90;;;;;;5034171;28;20041;-54
2022/04/27 01:26:06;;;;;;;7.40;6.70;;;4.90;99.90;;;;;;5034460;28;20472;-51
2022/04/27 01:28:33;;;;;;;8.00;7.22;;;4.90;99.90;;;;;;5034361;28;20620;-52
2022/04/27 01:31:03;;;;;;;8.52;6.57;;;4.90;99.90;;;;;;5033540;28;20030;-57
2022/04/27 01:33:34;;;;;;;7.43;6.65;;;4.80;99.90;;;;;;5034068;28;20104;-56
2022/04/27 01:36:04;;;;;;;6.82;6.13;;;4.80;99.90;;;;;;5034240;28;20025;-52
2022/04/27 01:38:34;;;;;;;7.18;6.47;;;4.80;99.90;;;;;;5033998;28;20110;-55
2022/04/27 01:41:00;;;;;;;6.85;5.75;;;4.80;99.90;;;;;;5034143;28;20461;-56
2022/04/27 01:43:25;;;;;;;7.28;6.57;;;4.80;99.90;;;;;;5034060;28;20033;-53
2022/04/27 01:45:52;;;;;;;7.65;6.85;;;4.80;99.90;;;;;;5033948;28;20021;-54
2022/04/27 01:48:18;;;;;;;6.75;6.13;;;4.80;99.90;;;;;;5033945;28;20078;-55
2022/04/27 01:50:43;;;;;;;7.05;6.40;;;4.70;99.90;;;;;;5033750;28;20108;-53
2022/04/27 01:55:53;;;;;;;6.03;5.43;;;4.60;99.90;;;;;;5033639;28;20036;-57
2022/04/27 01:58:19;;;;;;;7.88;5.90;;;4.60;99.90;;;;;;5033296;28;20017;-55
2022/04/27 02:00:47;;;;;;;13.32;6.47;;;4.70;99.90;;;;;;5033654;28;20036;-54
2022/04/27 02:03:18;;;;;;;47.97;7.13;;;4.80;99.90;;;;;;5033344;28;20038;-54
2022/04/27 02:05:44;;;;;;;7.82;6.57;;;4.70;99.90;;;;;;5034021;28;20463;-55
2022/04/27 02:08:10;;;;;;;7.47;6.78;;;4.80;99.90;;;;;;5033771;28;20103;-50
2022/04/27 02:10:37;;;;;;;7.15;6.45;;;4.80;99.90;;;;;;5033487;28;20025;-57
2022/04/27 02:13:04;;;;;;;6.43;5.82;;;4.70;99.90;;;;;;5033643;28;20079;-53
2022/04/27 02:15:30;;;;;;;8.05;6.57;;;4.70;99.90;;;;;;5033219;28;20041;-51
2022/04/27 02:17:56;;;;;;;6.72;6.13;;;4.70;99.90;;;;;;5033221;28;20022;-57
2022/04/27 02:20:23;;;;;;;6.82;6.13;;;4.70;99.90;;;;;;5033240;28;20045;-48
2022/04/27 02:22:49;;;;;;;7.15;6.45;;;4.60;99.90;;;;;;5033322;28;20624;-53
2022/04/27 02:25:14;;;;;;;22.00;7.03;;;4.70;99.90;;;;;;5033230;28;20024;-55
2022/04/27 02:27:41;;;;;;;14.00;6.20;;;4.70;99.90;;;;;;5031955;28;20029;-53
2022/04/27 02:30:08;;;;;;;20.45;5.05;;;4.70;99.90;;;;;;5033038;28;20030;-53
2022/04/27 02:32:34;;;;;;;30.02;5.95;;;4.60;99.90;;;;;;5032867;28;20041;-54
2022/04/27 02:35:00;;;;;;;97.40;10.70;;;4.50;99.90;;;;;;5031505;28;20362;-55
2022/04/27 02:37:25;;;;;;;9.65;5.00;;;4.50;99.90;;;;;;5032958;28;20029;-53
2022/04/27 02:39:51;;;;;;;53.92;6.90;;;4.40;99.90;;;;;;5033001;28;20032;-55
2022/04/27 02:42:17;;;;;;;7.20;6.50;;;4.40;99.90;;;;;;5031835;28;20116;-57
2022/04/27 02:44:44;;;;;;;7.50;6.65;;;4.40;99.90;;;;;;5032885;28;20045;-52
2022/04/27 02:47:09;;;;;;;6.55;5.90;;;4.40;99.90;;;;;;5031789;28;20025;-50
2022/04/27 02:52:19;;;;;;;7.63;6.57;;;4.40;99.90;;;;;;5031527;28;20032;-53
2022/04/27 02:54:45;;;;;;;7.63;6.43;;;4.40;99.90;;;;;;5031154;28;20021;-55
2022/04/27 02:57:11;;;;;;;6.93;6.22;;;4.40;99.90;;;;;;5032113;28;20076;-52
2022/04/27 02:59:37;;;;;;;6.47;5.88;;;4.40;99.90;;;;;;5032179;28;20025;-58
2022/04/27 03:02:03;;;;;;;6.10;5.43;;;4.30;99.90;;;;;;5031654;28;20441;-55
2022/04/27 03:04:28;;;;;;;6.43;5.82;;;4.30;99.90;;;;;;5031699;28;20025;-54
2022/04/27 03:06:54;;;;;;;6.35;5.75;;;4.30;99.90;;;;;;5031847;28;20473;-53
2022/04/27 03:09:20;;;;;;;7.05;6.18;;;4.30;99.90;;;;;;5032107;28;20082;-51
2022/04/27 03:11:45;;;;;;;7.70;5.57;;;4.20;99.90;;;;;;5032447;28;20100;-50
2022/04/27 03:14:11;;;;;;;6.30;5.70;;;4.20;99.90;;;;;;5031847;28;20187;-54
2022/04/27 03:16:37;;;;;;;6.00;5.50;;;4.20;99.90;;;;;;5032351;28;20690;-53
2022/04/27 03:19:02;;;;;;;6.63;6.00;;;4.20;99.90;;;;;;5032469;28;20120;-53
2022/04/27 03:21:29;;;;;;;6.25;5.65;;;4.10;99.90;;;;;;5032190;28;20025;-53
2022/04/27 03:23:56;;;;;;;8.30;5.97;;;4.10;99.90;;;;;;5032247;28;20028;-52
2022/04/27 03:26:22;;;;;;;7.22;6.55;;;4.00;99.90;;;;;;5031943;28;20025;-51
2022/04/27 03:28:47;;;;;;;8.27;6.63;;;4.00;99.90;;;;;;5031975;28;20022;-55
2022/04/27 03:31:13;;;;;;;5.63;5.13;;;3.90;99.90;;;;;;5031586;28;20033;-53
2022/04/27 03:33:39;;;;;;;5.60;4.95;;;3.90;99.90;;;;;;5031997;28;20028;-55
2022/04/27 03:36:08;;;;;;;5.15;4.65;;;3.80;99.90;;;;;;5031689;28;20116;-56
2022/04/27 03:38:34;;;;;;;9.80;4.35;;;3.70;99.90;;;;;;5031661;28;20134;-54
2022/04/27 03:41:00;;;;;;;28.02;5.30;;;3.60;99.90;;;;;;5031943;28;20028;-54
2022/04/27 03:43:26;;;;;;;26.25;5.20;;;3.50;99.90;;;;;;5031590;28;20504;-55
2022/04/27 03:45:52;;;;;;;14.45;5.35;;;3.40;99.90;;;;;;5031692;28;20034;-52
2022/04/27 03:48:17;;;;;;;42.10;5.63;;;3.40;99.90;;;;;;5031548;28;20037;-51
2022/04/27 03:50:43;;;;;;;57.20;6.68;;;3.30;99.90;;;;;;5031398;28;20469;-52
2022/04/27 03:53:09;;;;;;;21.17;5.82;;;3.20;99.90;;;;;;5031376;28;20025;-55
2022/04/27 03:55:35;;;;;;;7.10;5.80;;;3.20;99.90;;;;;;5031374;28;20472;-50
2022/04/27 03:58:04;;;;;;;6.07;5.47;;;3.20;99.90;;;;;;5031003;28;20052;-50
2022/04/27 04:00:30;;;;;;;7.07;5.60;;;3.30;99.90;;;;;;5031307;28;20071;-54
2022/04/27 04:02:59;;;;;;;6.93;5.50;;;3.40;99.90;;;;;;5031420;28;20036;-53
2022/04/27 04:05:25;;;;;;;5.90;5.35;;;3.40;99.90;;;;;;5031458;28;20026;-55
2022/04/27 04:07:51;;;;;;;6.05;5.55;;;3.40;99.90;;;;;;5031557;28;20029;-53
2022/04/27 04:10:17;;;;;;;7.95;6.22;;;3.50;99.90;;;;;;5031469;28;20033;-52
2022/04/27 04:12:44;;;;;;;6.97;6.28;;;3.50;99.90;;;;;;5031294;28;20037;-52
2022/04/27 04:15:10;;;;;;;5.38;4.88;;;3.60;99.90;;;;;;5031167;28;20052;-54
2022/04/27 04:17:36;;;;;;;5.95;5.45;;;3.60;99.90;;;;;;5030151;28;20491;-53
2022/04/27 04:20:03;;;;;;;6.55;5.25;;;3.60;99.90;;;;;;5030123;28;20026;-56
2022/04/27 04:22:28;;;;;;;6.07;5.47;;;3.60;99.90;;;;;;5031100;28;20079;-54
2022/04/27 04:30:22;;;;;;;7.03;5.60;;;3.80;99.90;;;;;;5031269;28;20377;-51
2022/04/27 04:32:48;;;;;;;6.75;6.10;;;3.80;99.90;;;;;;5030670;28;20022;-52
2022/04/27 04:35:14;;;;;;;7.18;6.47;;;3.90;99.90;;;;;;5030710;28;20038;-54
2022/04/27 04:37:40;;;;;;;8.20;7.22;;;4.10;99.90;;;;;;5030998;28;20025;-53
2022/04/27 04:40:06;;;;;;;7.40;6.57;;;4.10;99.90;;;;;;5030572;28;20116;-54
2022/04/27 04:42:34;;;;;;;8.07;6.65;;;4.10;99.90;;;;;;5030176;28;20386;-54
2022/04/27 04:45:01;;;;;;;7.32;6.63;;;4.10;99.90;;;;;;5031260;28;20029;-55
2022/04/27 04:47:26;;;;;;;8.30;7.30;;;4.20;99.90;;;;;;5030916;28;20104;-56
2022/04/27 04:49:52;;;;;;;7.43;6.70;;;4.20;99.90;;;;;;5031153;28;20105;-54
2022/04/27 04:52:18;;;;;;;7.70;6.95;;;4.30;99.90;;;;;;5030898;28;20061;-52
2022/04/27 04:54:44;;;;;;;12.20;7.00;;;4.50;99.90;;;;;;5030648;28;20025;-53
2022/04/27 04:57:09;;;;;;;9.27;8.23;;;4.60;99.90;;;;;;5030826;28;20049;-53
2022/04/27 04:59:35;;;;;;;8.77;7.70;;;4.70;99.90;;;;;;5030592;28;20059;-53
2022/04/27 05:02:00;;;;;;;11.90;7.75;;;4.90;99.90;;;;;;5030634;28;20053;-54
2022/04/27 05:04:26;;;;;;;14.68;7.47;;;5.10;99.90;;;;;;5030847;28;20036;-54
2022/04/27 05:06:52;;;;;;;9.77;7.35;;;5.20;99.90;;;;;;5033079;28;20473;-54
2022/04/27 05:09:18;;;;;;;8.93;7.63;;;5.40;99.90;;;;;;5033642;28;20096;-54
2022/04/27 05:11:43;;;;;;;9.80;6.78;;;5.60;99.90;;;;;;5034036;28;20416;-54
2022/04/27 05:14:09;;;;;;;10.55;6.82;;;5.80;99.90;;;;;;5034115;28;20046;-53
2022/04/27 05:16:36;;;;;;;7.57;6.65;;;5.90;99.90;;;;;;5034388;28;20079;-54
2022/04/27 05:19:03;;;;;;;8.52;6.35;;;6.30;99.90;;;;;;5033950;28;20034;-55
2022/04/27 05:21:29;;;;;;;6.63;6.03;;;6.30;99.90;;;;;;5033892;28;20033;-55
2022/04/27 05:23:54;;;;;;;6.75;5.30;;;6.50;99.90;;;;;;5033673;28;20067;-54
2022/04/27 05:26:20;;;;;;;6.13;5.40;;;6.60;99.90;;;;;;5033361;28;20030;-53
2022/04/27 05:34:14;;;;;;;5.85;5.25;;;7.00;99.90;;;;;;5034230;28;20087;-56
2022/04/27 05:36:39;;;;;;;6.70;5.57;;;7.00;99.90;;;;;;5034196;28;20063;-53
2022/04/27 05:39:05;;;;;;;8.10;6.15;;;7.00;99.90;;;;;;5034066;28;20125;-54
2022/04/27 05:41:31;;;;;;;11.13;6.22;;;7.00;99.90;;;;;;5033914;28;20072;-55
2022/04/27 05:43:57;;;;;;;7.00;6.28;;;7.10;99.90;;;;;;5034046;28;20026;-53
2022/04/27 05:46:23;;;;;;;8.25;5.43;;;7.20;99.90;;;;;;5032446;28;20064;-53
2022/04/27 05:48:49;;;;;;;10.65;5.82;;;7.30;99.90;;;;;;5034026;28;20087;-55
2022/04/27 05:51:15;;;;;;;6.32;5.18;;;7.40;99.90;;;;;;5032916;28;20026;-55
2022/04/27 05:53:41;;;;;;;6.15;5.55;;;7.50;99.90;;;;;;5033539;28;20026;-50
2022/04/27 05:56:08;;;;;;;5.78;5.28;;;7.70;99.90;;;;;;5033585;28;20036;-54
2022/04/27 05:58:34;;;;;;;5.25;4.75;;;7.70;99.90;;;;;;5033418;28;20445;-53
2022/04/27 06:00:59;;;;;;;8.18;6.60;;;7.80;99.90;;;;;;5033640;28;20049;-52
2022/04/27 06:03:25;;;;;;;6.55;5.65;;;7.90;99.90;;;;;;5033142;28;20107;-54
2022/04/27 06:05:50;;;;;;;6.10;5.25;;;7.90;99.90;;;;;;5033139;28;20037;-54
2022/04/27 06:08:17;;;;;;;7.75;6.20;;;7.90;99.90;;;;;;5033306;28;20029;-54
2022/04/27 06:10:42;;;;;;;6.88;6.28;;;7.90;99.90;;;;;;5033429;28;20413;-56
2022/04/27 06:13:08;;;;;;;7.22;5.80;;;8.00;99.90;;;;;;5033585;28;20032;-56
2022/04/27 06:15:34;;;;;;;7.07;6.05;;;8.10;99.90;;;;;;5031760;28;20154;-57
2022/04/27 06:17:59;;;;;;;7.10;6.35;;;8.20;99.90;;;;;;5033029;28;20029;-55
2022/04/27 06:20:25;;;;;;;6.80;6.20;;;8.30;99.90;;;;;;5033088;28;20022;-55
2022/04/27 06:22:51;;;;;;;7.28;6.57;;;8.40;99.90;;;;;;5023193;28;20039;-53
2022/04/27 06:25:18;;;;;;;8.48;7.47;;;8.50;99.90;;;;;;5022539;28;20080;-54
2022/04/27 06:27:44;;;;;;;9.00;6.90;;;8.60;99.90;;;;;;5022551;28;20032;-55
2022/04/27 06:30:10;;;;;;;9.40;6.55;;;8.60;99.90;;;;;;5022707;28;20461;-56
2022/04/27 06:32:36;;;;;;;13.98;8.93;;;8.80;99.90;;;;;;5022774;28;20034;-54
2022/04/27 06:35:04;;;;;;;11.20;8.43;;;8.90;99.90;;;;;;5022189;28;20095;-55
2022/04/27 06:37:30;;;;;;;12.85;8.57;;;9.10;99.90;;;;;;5022156;28;20612;-48
2022/04/27 06:39:56;;;;;;;11.82;9.27;;;9.00;99.90;;;;;;5022532;28;20052;-53
2022/04/27 06:42:22;;;;;;;12.98;9.63;;;9.00;99.90;;;;;;5021670;28;20079;-54
2022/04/27 06:44:48;;;;;;;11.10;9.35;;;8.90;99.90;;;;;;5022402;28;20511;-53
2022/04/27 06:47:15;;;;;;;12.65;10.93;;;8.90;99.90;;;;;;5022551;28;20099;-54
2022/04/27 06:49:40;;;;;;;15.95;13.27;;;8.60;99.90;;;;;;5021799;28;20029;-56
2022/04/27 06:52:06;;;;;;;19.45;12.13;;;8.60;99.90;;;;;;5026799;28;20472;-52
2022/04/27 06:54:32;;;;;;;18.10;13.23;;;8.70;99.90;;;;;;5032129;28;20037;-55
2022/04/27 06:56:58;;;;;;;14.57;11.77;;;8.70;99.90;;;;;;5032202;28;20025;-54
2022/04/27 06:59:24;;;;;;;14.65;12.50;;;8.60;99.90;;;;;;5032436;28;20025;-54
2022/04/27 07:01:50;;;;;;;16.38;13.27;;;8.60;99.90;;;;;;5032605;28;20029;-59
2022/04/27 07:04:16;;;;;;;21.90;13.02;;;8.70;99.90;;;;;;5032557;28;20112;-53
2022/04/27 07:06:42;;;;;;;15.45;12.30;;;8.70;99.90;;;;;;5032187;28;20053;-54
2022/04/27 07:09:11;;;;;;;16.85;13.02;;;8.90;99.90;;;;;;5032278;28;20068;-53
2022/04/27 07:11:37;;;;;;;14.77;12.68;;;8.80;99.90;;;;;;5032180;28;20037;-54
2022/04/27 07:14:03;;;;;;;16.48;13.57;;;9.00;99.90;;;;;;5032067;28;20041;-51
2022/04/27 07:16:28;;;;;;;18.17;14.48;;;9.10;99.90;;;;;;5031546;28;20032;-52
2022/04/27 07:18:55;;;;;;;17.17;12.75;;;9.10;99.90;;;;;;5032110;28;20472;-52
2022/04/27 07:21:21;;;;;;;18.58;13.38;;;9.20;99.90;;;;;;5031547;28;20025;-55
2022/04/27 07:23:47;;;;;;;23.90;16.73;;;9.50;99.90;;;;;;5031759;28;20032;-52
2022/04/27 07:26:13;;;;;;;17.63;13.68;;;9.30;99.90;;;;;;5025950;28;20172;-53
2022/04/27 07:28:38;;;;;;;19.17;14.27;;;9.70;99.90;;;;;;5038995;28;20644;-48
2022/04/27 07:31:08;;;;;;;15.30;13.40;;;9.80;99.90;;;;;;5039375;28;20041;-52
2022/04/27 07:33:34;;;;;;;17.88;13.98;;;10.20;99.90;;;;;;5021016;28;20135;-58
2022/04/27 07:36:00;;;;;;;20.10;14.07;;;9.90;99.90;;;;;;5021322;28;20342;-51
2022/04/27 07:38:29;;;;;;;14.60;11.48;;;10.00;99.90;;;;;;5021188;28;20029;-55
2022/04/27 07:40:55;;;;;;;22.75;12.80;;;10.20;99.90;;;;;;5026175;28;20035;-53
2022/04/27 07:43:20;;;;;;;16.38;12.75;;;10.50;99.90;;;;;;5040923;28;20567;-55
2022/04/27 07:45:46;;;;;;;13.98;12.48;;;10.40;99.90;;;;;;5040983;28;20033;-55
2022/04/27 07:48:12;;;;;;;19.17;13.27;;;10.60;99.90;;;;;;5038312;28;20029;-55
2022/04/27 07:50:38;;;;;;;13.70;11.77;;;10.40;99.90;;;;;;5020991;28;20400;-55
2022/04/27 07:53:04;;;;;;;16.80;12.73;;;10.90;99.90;;;;;;5022937;28;20116;-54
2022/04/27 07:55:29;;;;;;;19.23;12.43;;;10.80;99.90;;;;;;5020325;28;20055;-54
2022/04/27 07:57:56;;;;;;;16.45;12.80;;;10.50;99.90;;;;;;5021287;28;20034;-50
2022/04/27 08:00:22;;;;;;;16.85;12.73;;;10.60;99.90;;;;;;5019679;28;20052;-57
2022/04/27 08:02:47;;;;;;;17.15;11.82;;;10.70;99.90;;;;;;5021483;28;20033;-56
2022/04/27 08:05:16;;;;;;;16.00;13.48;;;10.70;99.90;;;;;;5020302;28;20102;-57
2022/04/27 08:07:46;;;;;;;16.20;12.07;;;10.60;99.90;;;;;;5020552;28;20033;-55
2022/04/27 08:10:18;;;;;;;14.93;11.40;;;10.50;99.90;;;;;;5021083;28;20117;-57
2022/04/27 08:12:47;;;;;;;19.23;12.98;;;10.60;99.90;;;;;;5021273;28;20091;-53
2022/04/27 08:15:14;;;;;;;14.20;12.15;;;10.90;99.90;;;;;;5020914;28;20107;-56
2022/04/27 08:17:49;;;;;;;12.55;11.00;;;11.40;99.90;;;;;;5019956;28;20037;-55
2022/04/27 08:22:59;;;;;;;14.13;11.27;;;11.30;99.90;;;;;;5019926;28;20045;-51
2022/04/27 08:25:25;;;;;;;18.13;13.65;;;11.60;99.90;;;;;;5020770;28;20389;-57
2022/04/27 08:27:51;;;;;;;14.18;10.85;;;11.50;99.90;;;;;;5021214;28;20065;-56
2022/04/27 08:30:16;;;;;;;13.98;11.95;;;11.70;99.90;;;;;;5022114;28;20077;-57
2022/04/27 08:32:42;;;;;;;11.77;10.55;;;11.70;99.90;;;;;;5019942;28;20425;-55
2022/04/27 08:35:08;;;;;;;12.32;10.00;;;12.20;99.90;;;;;;5020676;28;20172;-54
2022/04/27 08:37:33;;;;;;;13.90;11.40;;;12.40;99.90;;;;;;5020790;28;20156;-57
2022/04/27 08:40:01;;;;;;;13.10;11.50;;;12.60;99.90;;;;;;5020661;28;20033;-54
2022/04/27 08:42:27;;;;;;;12.95;9.40;;;12.60;99.90;;;;;;5024703;28;20021;-55
2022/04/27 08:44:53;;;;;;;17.08;10.90;;;12.60;99.90;;;;;;5024635;28;20037;-54
2022/04/27 08:47:18;;;;;;;12.55;11.23;;;12.70;99.90;;;;;;5024607;28;20649;-54
2022/04/27 08:49:44;;;;;;;13.75;10.27;;;12.50;99.90;;;;;;5024648;28;20039;-57
2022/04/27 08:52:12;;;;;;;13.88;12.20;;;12.50;99.90;;;;;;5024238;28;20034;-55
2022/04/27 08:54:39;;;;;;;13.68;10.68;;;12.30;99.90;;;;;;5024120;28;20044;-56
2022/04/27 08:57:05;;;;;;;16.52;10.88;;;12.20;99.90;;;;;;5023719;28;20158;-54
2022/04/27 08:59:31;;;;;;;11.48;9.30;;;11.70;99.90;;;;;;5023968;28;20803;-56
2022/04/27 09:01:57;;;;;;;10.93;9.15;;;11.80;99.90;;;;;;5023787;28;20029;-51
2022/04/27 09:04:22;;;;;;;9.00;8.02;;;11.70;99.90;;;;;;5025343;28;20163;-54
2022/04/27 09:06:49;;;;;;;14.00;8.80;;;11.60;99.90;;;;;;5024305;28;20149;-58
2022/04/27 09:09:33;;;;;;;21.38;9.90;;;11.40;99.90;;;;;;5023923;28;20030;-54
2022/04/27 09:11:58;;;;;;;10.13;8.75;;;11.20;99.90;;;;;;5022987;28;20527;-58
2022/04/27 09:14:37;;;;;;;11.93;10.30;;;11.20;99.90;;;;;;5024048;28;20049;-51
2022/04/27 09:22:51;;;;;;;;;;;11.10;99.90;;;;;;5043933;28;20043;-57
2022/04/27 09:25:33;;;;;;;10.85;8.90;;;11.40;99.90;;;;;;5043336;28;19952;-53
2022/04/27 09:28:02;;;;;;;11.35;8.93;;;11.70;99.90;;;;;;5044087;28;20109;-54
2022/04/27 09:30:28;;;;;;;9.82;8.82;;;11.50;99.90;;;;;;5043845;28;20078;-54
2022/04/27 09:32:54;;;;;;;10.05;8.63;;;11.70;99.90;;;;;;5041190;28;20416;-54
2022/04/27 09:35:29;;;;;;;13.30;9.20;;;11.90;99.90;;;;;;5022815;28;20041;-55
2022/04/27 09:37:55;;;;;;;10.02;8.43;;;11.90;99.90;;;;;;5023545;28;20120;-54
2022/04/27 09:40:21;;;;;;;11.50;9.85;;;11.00;99.90;;;;;;5023026;28;20108;-56
2022/04/27 09:42:46;;;;;;;22.73;17.40;;;11.10;99.90;;;;;;5022855;28;20357;-57
2022/04/27 09:45:20;;;;;;;18.90;14.68;;;10.90;99.90;;;;;;5023898;28;20668;-57
2022/04/27 09:47:53;;;;;;;12.30;10.15;;;10.70;99.90;;;;;;5023445;28;20481;-57
2022/04/27 09:50:19;;;;;;;13.50;9.98;;;10.90;99.90;;;;;;5022567;28;20033;-53
2022/04/27 09:52:46;;;;;;;12.13;10.30;;;10.80;99.90;;;;;;5023050;28;20035;-53
2022/04/27 09:55:12;;;;;;;11.02;9.85;;;10.80;99.90;;;;;;5023456;28;20116;-55
2022/04/27 09:57:39;;;;;;;14.75;10.55;;;10.80;99.90;;;;;;5023206;28;20116;-55
2022/04/27 10:00:06;;;;;;;11.05;9.95;;;10.70;99.90;;;;;;5023634;28;20104;-54
2022/04/27 10:02:34;;;;;;;13.05;10.50;;;10.80;99.90;;;;;;5022762;28;20618;-54
2022/04/27 10:05:01;;;;;;;15.73;11.15;;;10.80;99.90;;;;;;5022793;28;20091;-53
2022/04/27 10:07:32;;;;;;;11.45;10.23;;;10.70;99.90;;;;;;5022881;28;20358;-57
2022/04/27 10:10:03;;;;;;;11.93;10.43;;;10.80;99.90;;;;;;5022912;28;20030;-55
2022/04/27 10:12:34;;;;;;;10.23;9.10;;;10.80;99.90;;;;;;5022569;28;20041;-56
2022/04/27 10:15:00;;;;;;;10.75;9.63;;;10.90;99.90;;;;;;5022583;28;20095;-53
2022/04/27 10:17:27;;;;;;;12.13;8.73;;;11.10;99.90;;;;;;5022997;28;20041;-55
2022/04/27 10:19:53;;;;;;;8.05;7.20;;;11.30;99.90;;;;;;5022129;28;20021;-57
2022/04/27 10:22:33;;;;;;;10.77;9.68;;;11.40;99.90;;;;;;5023106;28;20037;-54
2022/04/27 10:25:11;;;;;;;12.00;8.38;;;11.30;99.90;;;;;;5023411;28;20504;-57
2022/04/27 10:27:41;;;;;;;10.60;7.50;;;11.50;99.90;;;;;;5022948;28;20053;-53
2022/04/27 10:30:12;;;;;;;8.38;7.45;;;11.70;99.90;;;;;;5022572;28;20033;-55
2022/04/27 10:32:48;;;;;;;9.00;7.93;;;11.80;99.90;;;;;;5028420;28;20384;-56
2022/04/27 10:35:19;;;;;;;8.50;7.53;;;12.00;99.90;;;;;;5052553;28;20029;-55
2022/04/27 10:37:49;;;;;;;8.73;7.85;;;12.20;99.90;;;;;;5053049;28;20021;-56
2022/04/27 10:40:42;;;;;;;8.85;7.95;;;12.10;99.90;;;;;;5052863;28;20029;-58
2022/04/27 10:43:07;;;;;;;8.18;7.38;;;12.00;99.90;;;;;;5037944;28;20029;-58
2022/04/27 10:45:38;;;;;;;8.73;7.82;;;12.10;99.90;;;;;;5023598;28;20033;-55
2022/04/27 10:48:15;;;;;;;9.40;7.00;;;12.40;99.90;;;;;;5023301;28;20393;-56
2022/04/27 10:50:54;;;;;;;12.77;10.32;;;12.20;99.90;;;;;;5022829;28;20068;-52
2022/04/27 10:53:25;;;;;;;9.07;7.80;;;12.10;99.90;;;;;;5022644;28;20605;-54
2022/04/27 10:55:53;;;;;;;11.32;10.13;;;11.70;99.90;;;;;;5023182;28;20462;-53
2022/04/27 10:58:22;;;;;;;8.05;7.32;;;11.40;99.90;;;;;;5022086;28;20033;-53
2022/04/27 11:01:03;;;;;;;12.60;10.85;;;10.70;99.90;;;;;;5029340;28;20025;-49
2022/04/27 11:03:38;;;;;;;16.30;12.65;;;10.60;99.90;;;;;;5031138;28;20377;-52
2022/04/27 11:06:07;;;;;;;17.13;9.23;;;10.80;99.90;;;;;;5023538;28;20440;-54
2022/04/27 11:08:52;;;;;;;8.13;6.68;;;10.80;99.90;;;;;;5019060;28;20033;-57
2022/04/27 11:11:18;;;;;;;11.40;10.15;;;10.70;99.90;;;;;;5020163;28;20041;-52
2022/04/27 11:13:46;;;;;;;9.80;8.80;;;10.90;99.90;;;;;;5021516;28;20050;-55
2022/04/27 11:16:13;;;;;;;10.57;9.43;;;10.90;99.90;;;;;;5021002;28;20124;-57
2022/04/27 11:18:51;;;;;;;11.27;9.25;;;11.10;99.90;;;;;;5021052;28;20061;-57
2022/04/27 11:21:22;;;;;;;9.00;7.80;;;11.40;99.90;;;;;;5021069;28;20488;-56
2022/04/27 11:23:48;;;;;;;8.80;8.00;;;11.10;99.90;;;;;;5021294;28;20061;-55
2022/04/27 11:26:14;;;;;;;11.43;7.38;;;10.90;99.90;;;;;;5020598;28;20033;-55
2022/04/27 11:28:42;;;;;;;9.35;8.45;;;11.00;99.90;;;;;;5037223;28;20033;-57
2022/04/27 11:31:09;;;;;;;10.60;9.60;;;10.70;99.90;;;;;;5022240;28;20040;-53
2022/04/27 11:33:41;;;;;;;11.27;10.07;;;10.70;99.90;;;;;;5040542;28;20032;-53
2022/04/27 11:36:19;;;;;;;13.50;10.25;;;10.90;99.90;;;;;;5041329;28;20024;-55
2022/04/27 11:38:45;;;;;;;18.00;10.98;;;10.90;99.90;;;;;;5041240;28;20036;-52
2022/04/27 11:41:15;;;;;;;13.45;9.75;;;11.00;99.90;;;;;;5021626;28;20025;-56
2022/04/27 11:43:40;;;;;;;12.30;11.00;;;11.10;99.90;;;;;;5023229;28;20009;-54
2022/04/27 11:46:09;;;;;;;10.55;9.45;;;11.30;99.90;;;;;;5031759;28;20112;-54
2022/04/27 11:48:35;;;;;;;11.15;9.77;;;11.30;99.90;;;;;;5031758;28;20095;-57
2022/04/27 11:51:02;;;;;;;11.82;10.70;;;11.20;99.90;;;;;;5031248;28;20645;-56
2022/04/27 11:53:28;;;;;;;11.25;9.95;;;11.30;99.90;;;;;;5031199;28;20021;-53
2022/04/27 11:55:54;;;;;;;10.82;9.82;;;11.30;99.90;;;;;;5031610;28;20029;-57
2022/04/27 11:58:23;;;;;;;12.80;11.38;;;11.30;99.90;;;;;;5031729;28;20071;-52
2022/04/27 12:00:51;;;;;;;11.43;9.98;;;11.40;99.90;;;;;;5031747;28;20033;-54
2022/04/27 12:03:18;;;;;;;16.45;14.27;;;11.70;99.90;;;;;;5031472;28;20053;-56
2022/04/27 12:05:50;;;;;;;13.38;10.73;;;11.70;99.90;;;;;;5031620;28;20018;-53
2022/04/27 12:08:20;;;;;;;13.38;10.88;;;12.00;99.90;;;;;;5031307;28;20034;-54
2022/04/27 12:10:46;;;;;;;16.40;11.50;;;12.00;99.90;;;;;;5031479;28;20025;-57
2022/04/27 12:13:17;;;;;;;12.18;10.85;;;12.00;99.90;;;;;;5031539;28;20099;-55
2022/04/27 12:15:52;;;;;;;12.85;10.57;;;11.60;99.90;;;;;;5031019;28;20107;-52
2022/04/27 12:18:28;;;;;;;17.95;12.48;;;11.60;99.90;;;;;;5031335;28;20064;-52
2022/04/27 12:20:57;;;;;;;12.38;11.07;;;11.60;99.90;;;;;;5031548;28;20526;-53
2022/04/27 12:23:29;;;;;;;11.57;10.40;;;11.50;99.90;;;;;;5031273;28;20036;-53
2022/04/27 12:25:56;;;;;;;14.27;12.75;;;11.70;99.90;;;;;;5031412;28;20106;-55
2022/04/27 12:28:32;;;;;;;15.82;12.90;;;11.50;99.90;;;;;;5031151;28;20025;-55
2022/04/27 12:31:02;;;;;;;18.40;12.18;;;11.10;99.90;;;;;;5031373;28;20025;-53
2022/04/27 12:37:29;;;;;;;15.88;11.93;;;11.40;99.90;;;;;;5031317;28;20048;-53
2022/04/27 12:39:39;;;;;;;19.52;13.15;;;11.60;99.90;;;;;;5031300;28;20116;-56
2022/04/27 12:42:08;;;;;;;13.45;11.60;;;11.90;99.90;;;;;;5031278;28;20025;-56
2022/04/27 12:44:42;;;;;;;14.30;12.10;;;11.90;99.90;;;;;;5030965;28;20103;-54
2022/04/27 12:47:13;;;;;;;12.63;11.10;;;12.10;99.90;;;;;;5031079;28;20029;-55
2022/04/27 12:49:40;;;;;;;21.55;12.32;;;11.90;99.90;;;;;;5030939;28;20025;-55
2022/04/27 12:52:27;;;;;;;15.63;13.10;;;11.60;99.90;;;;;;5031408;28;20377;-56
2022/04/27 12:55:10;;;;;;;15.55;13.38;;;11.30;99.90;;;;;;5031038;28;20024;-57
2022/04/27 12:57:42;;;;;;;18.52;13.20;;;11.30;99.90;;;;;;5030984;28;20029;-51
2022/04/27 13:00:08;;;;;;;17.17;12.25;;;11.70;99.90;;;;;;5031166;28;20441;-51
2022/04/27 13:02:34;;;;;;;18.40;15.20;;;11.40;99.90;;;;;;5030974;28;20060;-53
2022/04/27 13:04:59;;;;;;;16.73;12.52;;;11.50;99.90;;;;;;5031121;28;20022;-53
2022/04/27 13:07:25;;;;;;;14.80;13.20;;;11.50;99.90;;;;;;5030965;28;20033;-48
2022/04/27 13:12:36;;;;;;;13.95;12.45;;;11.70;99.90;;;;;;5031041;28;20115;-55
2022/04/27 13:15:03;;;;;;;15.95;13.07;;;11.70;99.90;;;;;;5030712;28;20048;-49
2022/04/27 13:17:29;;;;;;;18.52;12.98;;;11.70;99.90;;;;;;5030560;28;20025;-56